Time;durP1;ratioP1;P1;durP2;ratioP2;P2;SDS_P1;SDS_P2;PMS_P1;PMS_P2;Temp;Humidity;BMP_temperature;BMP_pressure;BME280_temperature;BME280_humidity;BME280_pressure;Samples;Min_cycle;Max_cycle;Signal;HPM_P1;HPM_P2
2021/12/06 00:01:09;;;;;;;9.80;5.97;;;;;;;;;;5057456;28;20579;-64
2021/12/06 00:03:40;;;;;;;17.05;5.95;;;;;;;;;;5059989;28;20407;-64
2021/12/06 00:06:09;;;;;;;10.43;5.85;;;;;;;;;;5063185;28;20485;-64
2021/12/06 00:08:38;;;;;;;13.95;6.10;;;;;;;;;;5052543;28;20132;-64
2021/12/06 00:11:09;;;;;;;11.75;6.63;;;;;;;;;;5054607;28;20559;-64
2021/12/06 00:13:38;;;;;;;9.73;5.88;;;;;;;;;;5062720;28;20052;-67
2021/12/06 00:16:13;;;;;;;14.18;6.75;;;;;;;;;;5058232;28;20632;-64
2021/12/06 00:18:42;;;;;;;12.73;6.75;;;;;;;;;;5065785;28;20127;-64
2021/12/06 00:21:11;;;;;;;14.65;6.97;;;;;;;;;;5053661;28;20040;-64
2021/12/06 00:23:41;;;;;;;9.68;5.90;;;;;;;;;;5066816;28;20123;-64
2021/12/06 00:26:09;;;;;;;12.82;6.40;;;;;;;;;;5064735;28;20074;-64
2021/12/06 00:28:39;;;;;;;13.55;6.25;;;;;;;;;;5057441;28;20778;-64
2021/12/06 00:31:08;;;;;;;13.60;6.25;;;;;;;;;;5068820;28;20049;-64
2021/12/06 00:33:37;;;;;;;11.88;5.72;;;;;;;;;;5055521;28;20172;-64
2021/12/06 00:36:15;;;;;;;11.10;5.53;;;;;;;;;;5066519;28;20053;-64
2021/12/06 00:38:46;;;;;;;15.70;6.45;;;;;;;;;;5056269;28;20481;-64
2021/12/06 00:41:14;;;;;;;12.02;5.53;;;;;;;;;;5061576;28;20527;-64
2021/12/06 00:43:43;;;;;;;14.93;6.85;;;;;;;;;;5063556;28;20050;-64
2021/12/06 00:46:11;;;;;;;12.88;6.70;;;;;;;;;;5071165;28;20127;-64
2021/12/06 00:48:39;;;;;;;15.15;6.18;;;;;;;;;;5069531;28;20052;-64
2021/12/06 00:51:07;;;;;;;10.63;5.57;;;;;;;;;;5063507;28;20063;-64
2021/12/06 00:53:36;;;;;;;14.48;6.32;;;;;;;;;;5066602;28;20054;-64
2021/12/06 00:56:09;;;;;;;14.77;6.35;;;;;;;;;;5065938;28;20448;-64
2021/12/06 00:58:37;;;;;;;12.60;6.25;;;;;;;;;;5062905;28;20049;-64
2021/12/06 01:01:09;;;;;;;12.70;6.30;;;;;;;;;;5054232;28;20119;-64
2021/12/06 01:03:38;;;;;;;10.13;5.53;;;;;;;;;;5063149;28;20407;-64
2021/12/06 01:06:10;;;;;;;11.23;6.60;;;;;;;;;;5067996;28;20045;-64
2021/12/06 01:08:38;;;;;;;11.65;6.15;;;;;;;;;;5061758;28;20448;-64
2021/12/06 01:11:11;;;;;;;14.00;7.03;;;;;;;;;;5068494;28;20807;-64
2021/12/06 01:13:40;;;;;;;12.40;6.13;;;;;;;;;;5066486;28;20498;-64
2021/12/06 01:16:08;;;;;;;14.55;6.63;;;;;;;;;;5068344;28;20385;-64
2021/12/06 01:18:37;;;;;;;8.73;5.60;;;;;;;;;;5067389;28;20118;-64
2021/12/06 01:21:16;;;;;;;12.40;6.28;;;;;;;;;;5069388;28;20553;-64
2021/12/06 01:23:52;;;;;;;9.65;5.05;;;;;;;;;;5066837;28;20128;-64
2021/12/06 01:26:37;;;;;;;13.45;6.05;;;;;;;;;;5060875;28;20045;-64
2021/12/06 01:29:38;;;;;;;;;;;;;;;;;;5064294;28;20064;-64
2021/12/06 01:32:15;;;;;;;10.70;6.38;;;;;;;;;;5068758;28;20451;-64
2021/12/06 01:40:19;;;;;;;13.45;5.63;;;;;;;;;;5069226;28;20048;-64
2021/12/06 01:42:49;;;;;;;12.65;5.78;;;;;;;;;;5066002;28;20071;-64
2021/12/06 01:45:17;;;;;;;13.85;6.20;;;;;;;;;;5070178;28;20056;-64
2021/12/06 01:47:46;;;;;;;18.27;7.35;;;;;;;;;;5067462;28;20143;-64
2021/12/06 01:50:17;;;;;;;19.67;7.60;;;;;;;;;;5053442;28;20114;-64
2021/12/06 01:52:46;;;;;;;13.98;7.85;;;;;;;;;;5054312;28;20135;-64
2021/12/06 01:55:15;;;;;;;15.65;7.32;;;;;;;;;;5059122;28;20127;-64
2021/12/06 01:57:44;;;;;;;19.15;7.57;;;;;;;;;;5064714;28;20121;-64
2021/12/06 02:00:15;;;;;;;20.83;7.78;;;;;;;;;;5054852;28;20507;-64
2021/12/06 02:02:44;;;;;;;17.08;7.53;;;;;;;;;;5055704;28;20059;-64
2021/12/06 02:05:12;;;;;;;23.20;9.20;;;;;;;;;;5056157;28;20048;-64
2021/12/06 02:07:41;;;;;;;23.55;8.98;;;;;;;;;;5057490;28;20049;-64
2021/12/06 02:10:10;;;;;;;23.35;8.82;;;;;;;;;;5068732;28;20048;-64
2021/12/06 02:12:38;;;;;;;20.83;8.48;;;;;;;;;;5073535;28;20130;-64
2021/12/06 02:15:18;;;;;;;24.77;9.27;;;;;;;;;;5072033;28;20143;-64
2021/12/06 02:17:57;;;;;;;20.58;8.13;;;;;;;;;;5058167;28;20056;-64
2021/12/06 02:20:28;;;;;;;26.65;9.43;;;;;;;;;;5056221;28;20504;-64
2021/12/06 02:22:59;;;;;;;28.52;10.15;;;;;;;;;;5056041;28;20550;-64
2021/12/06 02:25:28;;;;;;;24.75;8.98;;;;;;;;;;5067459;28;20095;-64
2021/12/06 02:27:57;;;;;;;23.10;8.50;;;;;;;;;;5069598;28;20085;-65
2021/12/06 02:30:25;;;;;;;26.25;9.85;;;;;;;;;;5067419;28;20171;-64
2021/12/06 02:32:54;;;;;;;25.13;9.20;;;;;;;;;;5074460;28;20078;-64
2021/12/06 02:35:23;;;;;;;21.17;8.10;;;;;;;;;;5052350;28;20568;-64
2021/12/06 02:37:52;;;;;;;19.05;8.50;;;;;;;;;;5051988;28;20554;-64
2021/12/06 02:40:24;;;;;;;24.63;9.60;;;;;;;;;;5064897;28;20135;-64
2021/12/06 02:42:52;;;;;;;20.48;9.18;;;;;;;;;;5053254;28;20045;-64
2021/12/06 02:45:24;;;;;;;26.00;8.90;;;;;;;;;;5066406;28;20485;-64
2021/12/06 02:47:53;;;;;;;24.00;8.50;;;;;;;;;;5054924;28;20296;-64
2021/12/06 02:50:23;;;;;;;24.70;8.50;;;;;;;;;;5053420;28;20544;-65
2021/12/06 02:52:53;;;;;;;23.83;8.65;;;;;;;;;;5062079;28;20068;-64
2021/12/06 02:55:31;;;;;;;24.33;8.63;;;;;;;;;;5057970;28;20164;-64
2021/12/06 02:58:01;;;;;;;27.05;8.75;;;;;;;;;;5060838;28;20056;-64
2021/12/06 03:00:30;;;;;;;22.58;8.40;;;;;;;;;;5064934;28;20045;-64
2021/12/06 03:02:58;;;;;;;24.63;8.43;;;;;;;;;;5062405;28;20044;-64
2021/12/06 03:05:27;;;;;;;21.83;8.32;;;;;;;;;;5050822;28;20053;-64
2021/12/06 03:07:59;;;;;;;24.60;7.82;;;;;;;;;;5064643;28;20395;-64
2021/12/06 03:10:29;;;;;;;21.45;8.02;;;;;;;;;;5059113;28;20481;-65
2021/12/06 03:12:58;;;;;;;20.33;7.88;;;;;;;;;;5065980;28;20122;-65
2021/12/06 03:15:27;;;;;;;22.58;8.52;;;;;;;;;;5056310;28;20055;-65
2021/12/06 03:17:55;;;;;;;22.25;8.27;;;;;;;;;;5052578;28;20348;-64
2021/12/06 03:20:23;;;;;;;24.58;8.93;;;;;;;;;;5051970;28;20124;-64
2021/12/06 03:22:51;;;;;;;26.42;10.13;;;;;;;;;;5051838;28;20624;-64
2021/12/06 03:25:20;;;;;;;27.83;8.73;;;;;;;;;;5055188;28;20135;-65
2021/12/06 03:27:49;;;;;;;29.58;9.70;;;;;;;;;;5061682;28;20048;-65
2021/12/06 03:30:18;;;;;;;28.85;9.25;;;;;;;;;;5059065;28;20547;-65
2021/12/06 03:32:46;;;;;;;22.15;8.52;;;;;;;;;;5063107;28;20067;-64
2021/12/06 03:35:15;;;;;;;32.50;9.27;;;;;;;;;;5064073;28;20057;-65
2021/12/06 03:37:43;;;;;;;26.48;8.90;;;;;;;;;;5068024;28;20041;-65
2021/12/06 03:40:12;;;;;;;22.70;9.25;;;;;;;;;;5056343;28;20053;-64
2021/12/06 03:42:41;;;;;;;22.45;9.77;;;;;;;;;;5064192;28;20205;-65
2021/12/06 03:45:11;;;;;;;24.42;8.80;;;;;;;;;;5082052;28;20110;-65
2021/12/06 03:47:39;;;;;;;25.92;9.85;;;;;;;;;;5055915;28;20488;-65
2021/12/06 03:50:09;;;;;;;24.67;8.85;;;;;;;;;;5068944;28;20056;-64
2021/12/06 03:52:38;;;;;;;21.90;8.18;;;;;;;;;;5064040;28;20135;-65
2021/12/06 03:55:07;;;;;;;28.90;10.50;;;;;;;;;;5060716;28;20052;-64
2021/12/06 03:57:35;;;;;;;24.20;9.80;;;;;;;;;;5062189;28;20040;-65
2021/12/06 04:00:05;;;;;;;26.15;9.48;;;;;;;;;;5063588;28;20040;-65
2021/12/06 04:02:41;;;;;;;17.95;7.42;;;;;;;;;;3791008;28;10025105;-65
2021/12/06 04:05:10;;;;;;;28.60;9.57;;;;;;;;;;2092054;28;10001993;-64
2021/12/06 04:07:38;;;;;;;21.00;8.02;;;;;;;;;;5055252;28;20448;-65
2021/12/06 04:10:08;;;;;;;19.02;8.25;;;;;;;;;;5067541;28;20048;-65
2021/12/06 04:12:36;;;;;;;22.60;8.43;;;;;;;;;;5067452;28;20556;-65
2021/12/06 04:15:04;;;;;;;26.52;8.30;;;;;;;;;;5069004;28;20136;-65
2021/12/06 04:17:33;;;;;;;28.30;9.20;;;;;;;;;;5063830;28;20041;-65
2021/12/06 04:20:02;;;;;;;24.42;9.23;;;;;;;;;;5055022;28;20052;-65
2021/12/06 04:22:31;;;;;;;25.08;9.23;;;;;;;;;;5059243;28;20430;-65
2021/12/06 04:25:01;;;;;;;24.48;8.38;;;;;;;;;;5068070;28;20036;-65
2021/12/06 04:27:30;;;;;;;26.23;9.63;;;;;;;;;;5068437;28;20128;-65
2021/12/06 04:29:58;;;;;;;21.67;8.32;;;;;;;;;;5063864;28;20037;-65
2021/12/06 04:32:27;;;;;;;25.80;9.27;;;;;;;;;;5070441;28;20051;-65
2021/12/06 04:34:55;;;;;;;21.00;8.73;;;;;;;;;;5073185;28;20060;-64
2021/12/06 04:37:24;;;;;;;30.63;9.38;;;;;;;;;;5066239;28;20064;-65
2021/12/06 04:39:53;;;;;;;23.40;9.15;;;;;;;;;;5066283;28;20133;-65
2021/12/06 04:42:21;;;;;;;23.85;8.60;;;;;;;;;;5070135;28;20049;-64
2021/12/06 04:44:49;;;;;;;25.02;9.13;;;;;;;;;;5052774;28;20049;-65
2021/12/06 04:47:18;;;;;;;25.70;9.63;;;;;;;;;;5069531;28;20047;-65
2021/12/06 04:49:46;;;;;;;30.52;9.55;;;;;;;;;;5066554;28;20144;-65
2021/12/06 04:52:15;;;;;;;26.13;8.43;;;;;;;;;;5062177;28;20067;-65
2021/12/06 04:54:46;;;;;;;23.42;8.50;;;;;;;;;;5061018;28;20052;-65
2021/12/06 04:57:16;;;;;;;29.95;9.30;;;;;;;;;;5067161;28;20440;-65
2021/12/06 04:59:46;;;;;;;28.60;9.18;;;;;;;;;;5065573;28;20051;-64
2021/12/06 05:02:16;;;;;;;32.53;9.75;;;;;;;;;;5067095;28;20053;-65
2021/12/06 05:04:47;;;;;;;28.20;8.38;;;;;;;;;;5061279;28;20044;-65
2021/12/06 05:07:17;;;;;;;28.58;10.25;;;;;;;;;;5063273;28;20135;-65
2021/12/06 05:09:47;;;;;;;28.02;9.85;;;;;;;;;;5058130;28;20051;-64
2021/12/06 05:12:17;;;;;;;35.08;10.10;;;;;;;;;;5072210;28;20044;-64
2021/12/06 05:14:45;;;;;;;30.40;10.10;;;;;;;;;;5068284;28;20797;-65
2021/12/06 05:17:13;;;;;;;31.92;10.05;;;;;;;;;;5061512;28;20489;-65
2021/12/06 05:19:42;;;;;;;31.05;10.10;;;;;;;;;;5071616;28;20378;-65
2021/12/06 05:22:10;;;;;;;31.27;10.43;;;;;;;;;;5067429;28;20041;-64
2021/12/06 05:24:38;;;;;;;28.33;9.65;;;;;;;;;;5068031;28;20047;-65
2021/12/06 05:27:08;;;;;;;26.95;9.40;;;;;;;;;;5057348;28;20478;-64
2021/12/06 05:29:37;;;;;;;28.60;9.70;;;;;;;;;;5055877;28;20471;-64
2021/12/06 05:32:06;;;;;;;29.10;9.75;;;;;;;;;;5056066;28;20050;-64
2021/12/06 05:34:38;;;;;;;25.05;7.72;;;;;;;;;;5067859;28;20135;-65
2021/12/06 05:37:07;;;;;;;26.25;9.13;;;;;;;;;;5060033;28;20111;-65
2021/12/06 05:39:35;;;;;;;21.85;8.52;;;;;;;;;;5066009;28;20044;-65
2021/12/06 05:42:06;;;;;;;34.33;10.45;;;;;;;;;;5068495;28;20059;-64
2021/12/06 05:44:36;;;;;;;32.40;9.55;;;;;;;;;;5053751;28;20041;-65
2021/12/06 05:47:04;;;;;;;29.98;10.90;;;;;;;;;;5051772;28;20184;-65
2021/12/06 05:49:33;;;;;;;31.38;10.98;;;;;;;;;;5057879;28;20327;-65
2021/12/06 05:52:01;;;;;;;27.30;8.93;;;;;;;;;;5055245;28;20057;-65
2021/12/06 05:54:29;;;;;;;31.25;8.70;;;;;;;;;;5062759;28;20079;-65
2021/12/06 05:56:58;;;;;;;28.38;9.77;;;;;;;;;;5058637;28;20041;-65
2021/12/06 05:59:27;;;;;;;29.08;9.40;;;;;;;;;;5060498;28;20052;-65
2021/12/06 06:01:56;;;;;;;27.85;9.85;;;;;;;;;;5057659;28;20044;-65
2021/12/06 06:04:26;;;;;;;29.58;10.18;;;;;;;;;;5058830;28;20048;-65
2021/12/06 06:06:54;;;;;;;23.65;9.93;;;;;;;;;;5063338;28;20053;-65
2021/12/06 06:09:22;;;;;;;22.50;8.98;;;;;;;;;;5068044;28;20152;-65
2021/12/06 06:11:51;;;;;;;26.05;9.90;;;;;;;;;;5061579;28;20566;-65
2021/12/06 06:14:19;;;;;;;21.63;9.18;;;;;;;;;;5065330;28;20136;-65
2021/12/06 06:16:50;;;;;;;24.38;8.40;;;;;;;;;;5058764;28;20037;-65
2021/12/06 06:19:21;;;;;;;27.98;10.32;;;;;;;;;;5058460;28;20471;-65
2021/12/06 06:21:49;;;;;;;26.83;9.20;;;;;;;;;;5065236;28;20162;-65
2021/12/06 06:24:17;;;;;;;22.40;9.38;;;;;;;;;;5066126;28;20052;-65
2021/12/06 06:26:46;;;;;;;20.15;8.02;;;;;;;;;;5054219;28;20131;-65
2021/12/06 06:29:15;;;;;;;20.58;8.98;;;;;;;;;;5062815;28;20055;-65
2021/12/06 06:31:43;;;;;;;23.48;9.07;;;;;;;;;;5051198;28;20113;-66
2021/12/06 06:34:12;;;;;;;21.30;9.18;;;;;;;;;;5062757;28;20454;-66
2021/12/06 06:36:42;;;;;;;23.85;9.30;;;;;;;;;;5057932;28;20507;-65
2021/12/06 06:39:11;;;;;;;22.40;9.32;;;;;;;;;;5060144;28;20438;-66
2021/12/06 06:41:40;;;;;;;19.10;8.40;;;;;;;;;;5058602;28;20132;-66
2021/12/06 06:44:08;;;;;;;31.05;9.63;;;;;;;;;;5054564;28;20136;-65
2021/12/06 06:46:36;;;;;;;26.38;9.55;;;;;;;;;;5050399;28;20653;-65
2021/12/06 06:49:05;;;;;;;24.42;10.02;;;;;;;;;;5058055;28;20071;-65
2021/12/06 06:51:33;;;;;;;29.90;10.00;;;;;;;;;;5054227;28;20049;-66
2021/12/06 06:54:03;;;;;;;29.85;10.07;;;;;;;;;;5059444;28;20056;-65
2021/12/06 06:56:32;;;;;;;27.08;10.02;;;;;;;;;;5056682;28;20076;-66
2021/12/06 06:59:00;;;;;;;22.50;8.75;;;;;;;;;;5059890;28;20098;-65
2021/12/06 07:01:29;;;;;;;27.83;10.82;;;;;;;;;;5062375;28;20049;-65
2021/12/06 07:03:57;;;;;;;22.90;7.80;;;;;;;;;;5058500;28;20064;-65
2021/12/06 07:06:26;;;;;;;27.50;9.57;;;;;;;;;;5057647;28;20544;-65
2021/12/06 07:08:56;;;;;;;30.27;9.50;;;;;;;;;;5061498;28;20044;-65
2021/12/06 07:11:28;;;;;;;25.83;10.07;;;;;;;;;;5062102;28;20547;-66
2021/12/06 07:13:57;;;;;;;22.98;8.65;;;;;;;;;;5063934;28;20076;-65
2021/12/06 07:16:25;;;;;;;25.80;9.45;;;;;;;;;;5060729;28;20363;-65
2021/12/06 07:18:54;;;;;;;29.02;11.05;;;;;;;;;;5058359;28;20144;-65
2021/12/06 07:21:23;;;;;;;28.83;10.02;;;;;;;;;;5056945;28;20076;-66
2021/12/06 07:23:51;;;;;;;26.77;9.38;;;;;;;;;;5056639;28;20609;-65
2021/12/06 07:26:21;;;;;;;25.48;9.85;;;;;;;;;;5063036;28;20048;-65
2021/12/06 07:28:54;;;;;;;20.10;8.85;;;;;;;;;;5052326;28;20622;-65
2021/12/06 07:31:24;;;;;;;27.20;10.25;;;;;;;;;;5063862;28;20051;-65
2021/12/06 07:33:53;;;;;;;22.05;9.20;;;;;;;;;;5058740;28;20120;-65
2021/12/06 07:36:23;;;;;;;26.13;9.73;;;;;;;;;;5064181;28;20055;-65
2021/12/06 07:38:52;;;;;;;26.77;8.93;;;;;;;;;;5057643;28;20045;-65
2021/12/06 07:41:22;;;;;;;26.73;10.73;;;;;;;;;;5060984;28;20087;-65
2021/12/06 07:43:51;;;;;;;27.63;9.90;;;;;;;;;;5052088;28;20159;-65
2021/12/06 07:46:20;;;;;;;27.75;10.63;;;;;;;;;;5054674;28;20049;-65
2021/12/06 07:48:52;;;;;;;25.13;9.70;;;;;;;;;;5054984;28;20460;-65
2021/12/06 07:51:21;;;;;;;24.15;8.55;;;;;;;;;;5053643;28;20045;-66
2021/12/06 07:53:50;;;;;;;20.75;8.43;;;;;;;;;;5053145;28;20139;-66
2021/12/06 07:56:18;;;;;;;26.23;9.57;;;;;;;;;;5057159;28;20088;-66
2021/12/06 07:58:47;;;;;;;25.42;9.30;;;;;;;;;;5052783;28;20147;-65
2021/12/06 08:01:17;;;;;;;25.52;8.93;;;;;;;;;;5053200;28;20052;-65
2021/12/06 08:03:46;;;;;;;26.02;9.35;;;;;;;;;;5056727;28;20076;-65
2021/12/06 08:06:15;;;;;;;22.20;9.25;;;;;;;;;;5052144;28;20051;-65
2021/12/06 08:08:44;;;;;;;25.77;9.35;;;;;;;;;;5057791;28;20055;-65
2021/12/06 08:11:15;;;;;;;27.33;10.52;;;;;;;;;;5059897;28;20060;-65
2021/12/06 08:13:45;;;;;;;23.85;9.55;;;;;;;;;;5058556;28;20048;-66
2021/12/06 08:16:15;;;;;;;23.88;9.45;;;;;;;;;;5058095;28;20135;-65
2021/12/06 08:18:46;;;;;;;23.17;8.75;;;;;;;;;;5056893;28;20106;-65
2021/12/06 08:21:15;;;;;;;19.63;8.55;;;;;;;;;;5053901;28;20049;-65
2021/12/06 08:23:44;;;;;;;23.38;8.73;;;;;;;;;;5059592;28;20103;-65
2021/12/06 08:26:13;;;;;;;22.35;8.82;;;;;;;;;;5061103;28;20056;-66
2021/12/06 08:28:42;;;;;;;22.92;9.82;;;;;;;;;;5056091;28;20045;-65
2021/12/06 08:31:12;;;;;;;26.48;9.55;;;;;;;;;;5051371;28;20052;-65
2021/12/06 08:33:42;;;;;;;23.48;9.63;;;;;;;;;;5051258;28;20063;-65
2021/12/06 08:36:12;;;;;;;22.88;8.95;;;;;;;;;;5060089;28;20499;-65
2021/12/06 08:38:41;;;;;;;23.65;10.63;;;;;;;;;;5060880;28;20659;-65
2021/12/06 08:41:12;;;;;;;22.35;10.13;;;;;;;;;;5058271;28;20051;-65
2021/12/06 08:43:42;;;;;;;25.17;9.30;;;;;;;;;;5056737;28;20045;-66
2021/12/06 08:46:13;;;;;;;25.85;9.65;;;;;;;;;;5057123;28;20044;-65
2021/12/06 08:48:42;;;;;;;25.40;9.45;;;;;;;;;;5053900;28;20060;-65
2021/12/06 08:51:15;;;;;;;21.60;8.73;;;;;;;;;;5062163;28;20105;-65
2021/12/06 08:53:44;;;;;;;21.30;9.23;;;;;;;;;;5054129;28;20540;-65
2021/12/06 08:56:13;;;;;;;21.05;8.18;;;;;;;;;;5057850;28;20049;-65
2021/12/06 08:58:42;;;;;;;21.65;8.48;;;;;;;;;;5057157;28;20546;-65
2021/12/06 09:01:11;;;;;;;23.77;8.98;;;;;;;;;;5055768;28;20060;-65
2021/12/06 09:03:59;;;;;;;24.60;9.07;;;;;;;;;;5058155;28;20523;-65
2021/12/06 09:06:30;;;;;;;30.67;8.63;;;;;;;;;;5057249;28;20060;-66
2021/12/06 09:09:00;;;;;;;26.30;9.52;;;;;;;;;;5063241;28;20558;-65
2021/12/06 09:11:28;;;;;;;25.55;8.80;;;;;;;;;;5063624;28;20040;-65
2021/12/06 09:13:57;;;;;;;23.77;9.60;;;;;;;;;;5061589;28;20044;-66
2021/12/06 09:16:25;;;;;;;24.98;9.52;;;;;;;;;;5059679;28;20041;-65
2021/12/06 09:18:54;;;;;;;23.05;9.75;;;;;;;;;;5059504;28;20045;-65
2021/12/06 09:21:23;;;;;;;24.27;8.90;;;;;;;;;;5062511;28;20056;-65
2021/12/06 09:23:54;;;;;;;22.63;9.38;;;;;;;;;;5061706;28;20045;-65
2021/12/06 09:26:23;;;;;;;25.30;10.93;;;;;;;;;;5057397;28;20048;-65
2021/12/06 09:28:51;;;;;;;29.13;10.88;;;;;;;;;;5066186;28;20151;-65
2021/12/06 09:31:20;;;;;;;33.70;11.27;;;;;;;;;;5055964;28;20519;-66
2021/12/06 09:33:49;;;;;;;25.98;10.35;;;;;;;;;;5056795;28;20437;-65
2021/12/06 09:36:20;;;;;;;28.70;10.52;;;;;;;;;;5063254;28;20550;-65
2021/12/06 09:38:49;;;;;;;23.45;10.15;;;;;;;;;;5065119;28;20080;-65
2021/12/06 09:41:23;;;;;;;36.50;12.05;;;;;;;;;;5058636;28;20088;-65
2021/12/06 09:43:53;;;;;;;29.58;11.35;;;;;;;;;;5058642;28;20071;-65
2021/12/06 09:46:22;;;;;;;30.98;11.35;;;;;;;;;;5056851;28;20068;-65
2021/12/06 09:48:50;;;;;;;31.45;11.43;;;;;;;;;;5057601;28;20041;-65
2021/12/06 09:51:21;;;;;;;26.10;11.98;;;;;;;;;;5055317;28;20041;-64
2021/12/06 09:53:51;;;;;;;32.38;10.93;;;;;;;;;;5055784;28;20052;-64
2021/12/06 09:56:24;;;;;;;36.95;11.13;;;;;;;;;;5055891;28;20049;-64
2021/12/06 09:58:53;;;;;;;37.83;12.70;;;;;;;;;;5063005;28;20448;-65
2021/12/06 10:01:24;;;;;;;32.92;11.85;;;;;;;;;;5056918;28;20053;-64
2021/12/06 10:03:54;;;;;;;29.20;11.88;;;;;;;;;;5062472;28;20131;-64
2021/12/06 10:06:26;;;;;;;30.73;11.57;;;;;;;;;;5060641;28;20470;-64
2021/12/06 10:08:55;;;;;;;28.58;10.40;;;;;;;;;;5060069;28;20370;-65
2021/12/06 10:11:26;;;;;;;28.90;10.90;;;;;;;;;;5061221;28;20050;-64
2021/12/06 10:13:57;;;;;;;36.40;11.82;;;;;;;;;;5064292;28;20044;-64
2021/12/06 10:16:26;;;;;;;27.40;10.88;;;;;;;;;;5064320;28;20106;-65
2021/12/06 10:18:54;;;;;;;25.88;10.98;;;;;;;;;;5059081;28;20055;-65
2021/12/06 10:21:27;;;;;;;32.55;12.02;;;;;;;;;;5060500;28;20048;-64
2021/12/06 10:23:56;;;;;;;28.95;11.20;;;;;;;;;;5059980;28;20056;-64
2021/12/06 10:26:28;;;;;;;28.63;11.15;;;;;;;;;;5058298;28;20515;-65
2021/12/06 10:28:57;;;;;;;30.10;11.40;;;;;;;;;;5061368;28;20048;-64
2021/12/06 10:31:27;;;;;;;27.33;9.93;;;;;;;;;;5060637;28;20052;-64
2021/12/06 10:33:55;;;;;;;26.67;10.77;;;;;;;;;;5059712;28;20044;-64
2021/12/06 10:36:26;;;;;;;28.58;10.45;;;;;;;;;;5062858;28;20044;-64
2021/12/06 10:38:55;;;;;;;30.33;10.73;;;;;;;;;;5064900;28;20490;-65
2021/12/06 10:41:26;;;;;;;27.23;9.18;;;;;;;;;;5057666;28;20060;-64
2021/12/06 10:43:58;;;;;;;26.98;10.30;;;;;;;;;;5062995;28;20040;-64
2021/12/06 10:46:28;;;;;;;26.35;10.13;;;;;;;;;;5058493;28;20106;-64
2021/12/06 10:48:59;;;;;;;27.38;9.50;;;;;;;;;;5061227;28;20098;-65
2021/12/06 10:51:33;;;;;;;20.55;9.02;;;;;;;;;;5061478;28;20086;-64
2021/12/06 10:54:05;;;;;;;27.08;10.70;;;;;;;;;;5064126;28;20064;-65
2021/12/06 10:56:41;;;;;;;36.53;11.85;;;;;;;;;;5062183;28;20059;-65
2021/12/06 10:59:13;;;;;;;32.60;11.25;;;;;;;;;;5060794;28;20068;-64
2021/12/06 11:01:43;;;;;;;30.38;12.00;;;;;;;;;;5061612;28;20093;-64
2021/12/06 11:04:16;;;;;;;27.02;10.93;;;;;;;;;;5061166;28;20045;-64
2021/12/06 11:06:46;;;;;;;27.83;11.50;;;;;;;;;;5059151;28;20049;-64
2021/12/06 11:09:15;;;;;;;28.33;11.73;;;;;;;;;;5063026;28;20094;-64
2021/12/06 11:11:45;;;;;;;33.45;11.45;;;;;;;;;;5064692;28;20050;-64
2021/12/06 11:14:19;;;;;;;25.15;10.77;;;;;;;;;;5060773;28;20180;-64
2021/12/06 11:16:48;;;;;;;28.88;11.27;;;;;;;;;;5053052;28;20053;-64
2021/12/06 11:19:18;;;;;;;28.30;11.30;;;;;;;;;;5058358;28;20128;-64
2021/12/06 11:21:47;;;;;;;35.10;12.50;;;;;;;;;;5052110;28;20818;-64
2021/12/06 11:24:17;;;;;;;29.15;13.30;;;;;;;;;;5062906;28;20052;-64
2021/12/06 11:26:48;;;;;;;32.28;11.98;;;;;;;;;;5059782;28;20503;-64
2021/12/06 11:29:20;;;;;;;30.73;11.23;;;;;;;;;;5058588;28;20055;-64
2021/12/06 11:31:51;;;;;;;31.75;11.60;;;;;;;;;;5057161;28;20123;-64
2021/12/06 11:34:20;;;;;;;28.38;11.40;;;;;;;;;;5060076;28;20041;-64
2021/12/06 11:36:53;;;;;;;26.90;11.75;;;;;;;;;;5057086;28;20500;-64
2021/12/06 11:39:23;;;;;;;32.97;12.60;;;;;;;;;;5064761;28;20118;-64
2021/12/06 11:41:53;;;;;;;31.20;11.35;;;;;;;;;;5054471;28;20521;-64
2021/12/06 11:44:34;;;;;;;30.67;11.52;;;;;;;;;;5057805;28;20414;-64
2021/12/06 11:47:05;;;;;;;28.92;12.70;;;;;;;;;;5063863;28;20798;-64
2021/12/06 11:49:36;;;;;;;32.72;11.38;;;;;;;;;;5052934;28;20516;-64
2021/12/06 11:52:05;;;;;;;33.30;11.73;;;;;;;;;;5060987;28;20045;-64
2021/12/06 11:54:38;;;;;;;32.47;12.93;;;;;;;;;;5063951;28;20107;-64
2021/12/06 11:57:17;;;;;;;30.20;11.32;;;;;;;;;;5057389;28;20060;-64
2021/12/06 11:59:48;;;;;;;30.05;11.60;;;;;;;;;;5064176;28;20065;-64
2021/12/06 12:02:17;;;;;;;31.40;12.40;;;;;;;;;;5058763;28;20465;-64
2021/12/06 12:04:45;;;;;;;25.67;9.77;;;;;;;;;;5056126;28;20044;-64
2021/12/06 12:07:14;;;;;;;24.02;10.35;;;;;;;;;;5058868;28;20080;-64
2021/12/06 12:09:42;;;;;;;32.00;12.05;;;;;;;;;;5057886;28;20192;-64
2021/12/06 12:12:11;;;;;;;30.08;11.52;;;;;;;;;;5058459;28;20065;-64
2021/12/06 12:14:41;;;;;;;34.13;12.50;;;;;;;;;;5062905;28;20481;-65
2021/12/06 12:17:17;;;;;;;30.88;11.50;;;;;;;;;;5065095;28;20131;-64
2021/12/06 12:19:47;;;;;;;34.15;11.35;;;;;;;;;;5063718;28;20041;-64
2021/12/06 12:22:16;;;;;;;31.13;11.73;;;;;;;;;;5060631;28;20122;-64
2021/12/06 12:24:48;;;;;;;28.58;11.00;;;;;;;;;;5057914;28;20140;-64
2021/12/06 12:27:24;;;;;;;30.60;11.32;;;;;;;;;;5061474;28;20493;-64
2021/12/06 12:29:54;;;;;;;24.17;9.80;;;;;;;;;;5054925;28;20151;-64
2021/12/06 12:32:25;;;;;;;29.67;10.85;;;;;;;;;;5057748;28;20117;-64
2021/12/06 12:34:53;;;;;;;27.50;11.32;;;;;;;;;;5064385;28;20057;-64
2021/12/06 12:37:23;;;;;;;31.27;12.43;;;;;;;;;;5057955;28;20040;-64
2021/12/06 12:39:58;;;;;;;27.60;10.50;;;;;;;;;;5065745;28;20516;-64
2021/12/06 12:42:27;;;;;;;27.10;11.27;;;;;;;;;;5070322;28;20485;-64
2021/12/06 12:44:57;;;;;;;21.05;9.20;;;;;;;;;;5067182;28;20109;-64
2021/12/06 12:47:29;;;;;;;29.15;9.80;;;;;;;;;;5065409;28;20064;-64
2021/12/06 12:50:00;;;;;;;21.38;9.25;;;;;;;;;;5062723;28;20052;-64
2021/12/06 12:52:39;;;;;;;29.70;10.25;;;;;;;;;;5065076;28;20056;-64
2021/12/06 12:55:19;;;;;;;18.27;8.43;;;;;;;;;;5066393;28;20547;-65
2021/12/06 12:57:48;;;;;;;24.77;9.80;;;;;;;;;;5064492;28;20106;-65
2021/12/06 13:00:20;;;;;;;17.85;8.63;;;;;;;;;;5062439;28;20135;-63
2021/12/06 13:02:50;;;;;;;23.30;9.95;;;;;;;;;;5055155;28;20073;-64
2021/12/06 13:05:27;;;;;;;20.80;9.35;;;;;;;;;;5056950;28;20052;-64
2021/12/06 13:08:13;;;;;;;27.45;9.82;;;;;;;;;;5060613;28;20123;-64
2021/12/06 13:10:44;;;;;;;27.15;10.73;;;;;;;;;;5063565;28;20550;-64
2021/12/06 13:13:19;;;;;;;26.15;9.73;;;;;;;;;;5062765;28;20051;-64
2021/12/06 13:15:54;;;;;;;25.17;9.73;;;;;;;;;;5064572;28;20438;-64
2021/12/06 13:18:31;;;;;;;28.40;10.68;;;;;;;;;;5057760;28;20076;-64
2021/12/06 13:21:21;;;;;;;27.70;10.15;;;;;;;;;;5058369;28;20536;-64
2021/12/06 13:24:04;;;;;;;23.02;9.88;;;;;;;;;;5060890;28;20098;-64
2021/12/06 13:26:35;;;;;;;31.17;10.90;;;;;;;;;;5057094;28;20487;-64
2021/12/06 13:29:05;;;;;;;24.85;9.73;;;;;;;;;;5068511;28;20036;-64
2021/12/06 13:31:34;;;;;;;28.42;10.98;;;;;;;;;;5055716;28;21169;-64
2021/12/06 13:34:16;;;;;;;31.45;10.63;;;;;;;;;;5060007;28;20058;-64
2021/12/06 13:36:46;;;;;;;30.23;10.80;;;;;;;;;;5061812;28;20049;-65
2021/12/06 13:39:38;;;;;;;27.63;10.50;;;;;;;;;;5062762;28;20148;-65
2021/12/06 13:42:08;;;;;;;25.73;9.77;;;;;;;;;;5061958;28;20045;-64
2021/12/06 13:44:46;;;;;;;28.55;9.82;;;;;;;;;;5064903;28;20048;-63
2021/12/06 13:47:16;;;;;;;22.35;8.90;;;;;;;;;;5064335;28;20040;-63
2021/12/06 13:49:55;;;;;;;26.38;9.45;;;;;;;;;;5063424;28;20049;-64
2021/12/06 13:52:44;;;;;;;28.45;8.85;;;;;;;;;;5062811;28;20084;-64
2021/12/06 13:55:26;;;;;;;24.63;9.45;;;;;;;;;;5053744;28;20128;-63
2021/12/06 13:57:56;;;;;;;24.98;9.80;;;;;;;;;;5059223;28;20059;-63
2021/12/06 14:00:27;;;;;;;25.70;9.05;;;;;;;;;;5059929;28;20061;-63
2021/12/06 14:02:57;;;;;;;26.95;9.88;;;;;;;;;;5059469;28;20111;-63
2021/12/06 14:05:27;;;;;;;28.17;8.75;;;;;;;;;;5063657;28;20052;-63
2021/12/06 14:07:55;;;;;;;26.17;10.15;;;;;;;;;;5071057;28;20130;-63
2021/12/06 14:10:25;;;;;;;24.65;9.35;;;;;;;;;;5076702;28;20055;-63
2021/12/06 14:12:53;;;;;;;26.40;8.55;;;;;;;;;;5057951;28;20045;-63
2021/12/06 14:15:35;;;;;;;26.17;9.90;;;;;;;;;;5052285;28;20050;-63
2021/12/06 14:18:05;;;;;;;28.77;9.57;;;;;;;;;;5063516;28;20136;-63
2021/12/06 14:20:33;;;;;;;25.95;9.55;;;;;;;;;;5065110;28;20068;-63
2021/12/06 14:23:04;;;;;;;27.05;10.38;;;;;;;;;;5066147;28;20133;-63
2021/12/06 14:25:35;;;;;;;23.63;8.50;;;;;;;;;;5059414;28;20044;-65
2021/12/06 14:28:09;;;;;;;27.42;9.27;;;;;;;;;;5057859;28;20221;-63
2021/12/06 14:30:38;;;;;;;24.25;8.80;;;;;;;;;;5065858;28;20040;-64
2021/12/06 14:33:07;;;;;;;28.05;9.48;;;;;;;;;;5062146;28;20486;-63
2021/12/06 14:35:37;;;;;;;22.67;9.13;;;;;;;;;;5060041;28;20048;-63
2021/12/06 14:38:06;;;;;;;26.73;9.18;;;;;;;;;;5061066;28;20843;-63
2021/12/06 14:40:36;;;;;;;26.80;10.45;;;;;;;;;;5055194;28;20424;-63
2021/12/06 14:43:10;;;;;;;22.13;8.23;;;;;;;;;;5061559;28;20045;-63
2021/12/06 14:45:39;;;;;;;22.67;9.00;;;;;;;;;;5062711;28;20475;-63
2021/12/06 14:48:11;;;;;;;21.88;8.70;;;;;;;;;;5063625;28;20542;-63
2021/12/06 14:50:57;;;;;;;24.83;8.57;;;;;;;;;;5057320;28;20053;-63